sensor_id;sensor_type;location;lat;lon;timestamp;pressure;altitude;pressure_sealevel;temperature
19666;BMP180;9980;51.020;7.772;2023-02-28T00:01:25;98654.00;;;2.60
19666;BMP180;9980;51.020;7.772;2023-02-28T00:03:52;98655.00;;;2.50
19666;BMP180;9980;51.020;7.772;2023-02-28T00:06:20;98645.00;;;2.50
19666;BMP180;9980;51.020;7.772;2023-02-28T00:08:47;98656.00;;;2.50
19666;BMP180;9980;51.020;7.772;2023-02-28T00:11:15;98656.00;;;2.50
19666;BMP180;9980;51.020;7.772;2023-02-28T00:13:46;98644.00;;;2.40
19666;BMP180;9980;51.020;7.772;2023-02-28T00:16:20;98647.00;;;2.40
19666;BMP180;9980;51.020;7.772;2023-02-28T00:18:47;98659.00;;;2.30
19666;BMP180;9980;51.020;7.772;2023-02-28T00:21:16;98659.00;;;2.30
19666;BMP180;9980;51.020;7.772;2023-02-28T00:23:43;98646.00;;;2.30
19666;BMP180;9980;51.020;7.772;2023-02-28T00:26:11;98658.00;;;2.20
19666;BMP180;9980;51.020;7.772;2023-02-28T00:28:40;98642.00;;;2.20
19666;BMP180;9980;51.020;7.772;2023-02-28T00:31:07;98651.00;;;2.20
19666;BMP180;9980;51.020;7.772;2023-02-28T00:33:34;98650.00;;;2.10
19666;BMP180;9980;51.020;7.772;2023-02-28T00:36:08;98648.00;;;2.10
19666;BMP180;9980;51.020;7.772;2023-02-28T00:38:37;98659.00;;;2.10
19666;BMP180;9980;51.020;7.772;2023-02-28T00:41:04;98650.00;;;2.00
19666;BMP180;9980;51.020;7.772;2023-02-28T00:43:37;98663.00;;;2.00
19666;BMP180;9980;51.020;7.772;2023-02-28T00:46:05;98670.00;;;2.00
19666;BMP180;9980;51.020;7.772;2023-02-28T00:48:33;98659.00;;;1.90
19666;BMP180;9980;51.020;7.772;2023-02-28T00:51:00;98653.00;;;1.90
19666;BMP180;9980;51.020;7.772;2023-02-28T00:53:28;98648.00;;;1.90
19666;BMP180;9980;51.020;7.772;2023-02-28T00:55:56;98642.00;;;1.90
19666;BMP180;9980;51.020;7.772;2023-02-28T00:58:25;98654.00;;;1.80
19666;BMP180;9980;51.020;7.772;2023-02-28T01:00:52;98658.00;;;1.80
19666;BMP180;9980;51.020;7.772;2023-02-28T01:03:21;98639.00;;;1.80
19666;BMP180;9980;51.020;7.772;2023-02-28T01:05:49;98634.00;;;1.70
19666;BMP180;9980;51.020;7.772;2023-02-28T01:08:17;98650.00;;;1.70
19666;BMP180;9980;51.020;7.772;2023-02-28T01:10:43;98656.00;;;1.70
19666;BMP180;9980;51.020;7.772;2023-02-28T01:13:11;98653.00;;;1.70
19666;BMP180;9980;51.020;7.772;2023-02-28T01:15:43;98650.00;;;1.70
19666;BMP180;9980;51.020;7.772;2023-02-28T01:18:12;98646.00;;;1.70
19666;BMP180;9980;51.020;7.772;2023-02-28T01:20:39;98656.00;;;1.60
19666;BMP180;9980;51.020;7.772;2023-02-28T01:23:06;98642.00;;;1.60
19666;BMP180;9980;51.020;7.772;2023-02-28T01:25:37;98650.00;;;1.60
19666;BMP180;9980;51.020;7.772;2023-02-28T01:28:05;98637.00;;;1.50
19666;BMP180;9980;51.020;7.772;2023-02-28T01:30:33;98629.00;;;1.50
19666;BMP180;9980;51.020;7.772;2023-02-28T01:33:00;98637.00;;;1.50
19666;BMP180;9980;51.020;7.772;2023-02-28T01:35:27;98633.00;;;1.50
19666;BMP180;9980;51.020;7.772;2023-02-28T01:37:54;98633.00;;;1.40
19666;BMP180;9980;51.020;7.772;2023-02-28T01:40:22;98637.00;;;1.40
19666;BMP180;9980;51.020;7.772;2023-02-28T01:42:49;98621.00;;;1.40
19666;BMP180;9980;51.020;7.772;2023-02-28T01:45:29;98630.00;;;1.30
19666;BMP180;9980;51.020;7.772;2023-02-28T01:48:02;98630.00;;;1.30
19666;BMP180;9980;51.020;7.772;2023-02-28T01:50:39;98621.00;;;1.30
19666;BMP180;9980;51.020;7.772;2023-02-28T01:53:15;98624.00;;;1.30
19666;BMP180;9980;51.020;7.772;2023-02-28T01:55:49;98634.00;;;1.20
19666;BMP180;9980;51.020;7.772;2023-02-28T01:58:20;98620.00;;;1.20
19666;BMP180;9980;51.020;7.772;2023-02-28T02:00:47;98627.00;;;1.20
19666;BMP180;9980;51.020;7.772;2023-02-28T02:03:18;98628.00;;;1.20
19666;BMP180;9980;51.020;7.772;2023-02-28T02:05:46;98632.00;;;1.20
19666;BMP180;9980;51.020;7.772;2023-02-28T02:08:21;98623.00;;;1.10
19666;BMP180;9980;51.020;7.772;2023-02-28T02:10:57;98610.00;;;1.10
19666;BMP180;9980;51.020;7.772;2023-02-28T02:25:11;98616.00;;;0.90
19666;BMP180;9980;51.020;7.772;2023-02-28T02:37:07;98621.00;;;0.80
19666;BMP180;9980;51.020;7.772;2023-02-28T02:39:50;98605.00;;;0.80
19666;BMP180;9980;51.020;7.772;2023-02-28T02:45:24;98622.00;;;0.70
19666;BMP180;9980;51.020;7.772;2023-02-28T02:47:56;98605.00;;;0.70
19666;BMP180;9980;51.020;7.772;2023-02-28T02:50:42;98612.00;;;0.70
19666;BMP180;9980;51.020;7.772;2023-02-28T02:53:12;98613.00;;;0.60
19666;BMP180;9980;51.020;7.772;2023-02-28T02:55:45;98611.00;;;0.60
19666;BMP180;9980;51.020;7.772;2023-02-28T02:58:18;98622.00;;;0.60
19666;BMP180;9980;51.020;7.772;2023-02-28T03:00:53;98611.00;;;0.60
19666;BMP180;9980;51.020;7.772;2023-02-28T03:03:22;98619.00;;;0.60
19666;BMP180;9980;51.020;7.772;2023-02-28T03:06:00;98630.00;;;0.50
19666;BMP180;9980;51.020;7.772;2023-02-28T03:08:34;98630.00;;;0.50
19666;BMP180;9980;51.020;7.772;2023-02-28T03:11:05;98619.00;;;0.50
19666;BMP180;9980;51.020;7.772;2023-02-28T03:20:27;98619.00;;;0.40
19666;BMP180;9980;51.020;7.772;2023-02-28T03:23:21;98615.00;;;0.30
19666;BMP180;9980;51.020;7.772;2023-02-28T03:26:09;98630.00;;;0.30
19666;BMP180;9980;51.020;7.772;2023-02-28T03:29:03;98612.00;;;0.30
19666;BMP180;9980;51.020;7.772;2023-02-28T03:31:39;98611.00;;;0.30
19666;BMP180;9980;51.020;7.772;2023-02-28T03:34:19;98624.00;;;0.30
19666;BMP180;9980;51.020;7.772;2023-02-28T03:36:53;98622.00;;;0.30
19666;BMP180;9980;51.020;7.772;2023-02-28T03:39:43;98615.00;;;0.30
19666;BMP180;9980;51.020;7.772;2023-02-28T03:42:21;98616.00;;;0.30
19666;BMP180;9980;51.020;7.772;2023-02-28T03:45:01;98616.00;;;0.30
19666;BMP180;9980;51.020;7.772;2023-02-28T03:47:57;98619.00;;;0.30
19666;BMP180;9980;51.020;7.772;2023-02-28T03:50:39;98624.00;;;0.30
19666;BMP180;9980;51.020;7.772;2023-02-28T03:53:17;98615.00;;;0.20
19666;BMP180;9980;51.020;7.772;2023-02-28T03:55:53;98613.00;;;0.20
19666;BMP180;9980;51.020;7.772;2023-02-28T03:58:38;98613.00;;;0.20
19666;BMP180;9980;51.020;7.772;2023-02-28T04:03:41;98623.00;;;0.20
19666;BMP180;9980;51.020;7.772;2023-02-28T04:06:17;98616.00;;;0.20
19666;BMP180;9980;51.020;7.772;2023-02-28T04:08:44;98610.00;;;0.20
19666;BMP180;9980;51.020;7.772;2023-02-28T04:11:33;98618.00;;;0.20
19666;BMP180;9980;51.020;7.772;2023-02-28T04:14:03;98610.00;;;0.20
19666;BMP180;9980;51.020;7.772;2023-02-28T04:16:33;98623.00;;;0.20
19666;BMP180;9980;51.020;7.772;2023-02-28T04:19:07;98626.00;;;0.20
19666;BMP180;9980;51.020;7.772;2023-02-28T04:21:41;98622.00;;;0.20
19666;BMP180;9980;51.020;7.772;2023-02-28T04:24:12;98618.00;;;0.20
19666;BMP180;9980;51.020;7.772;2023-02-28T04:26:46;98616.00;;;0.20
19666;BMP180;9980;51.020;7.772;2023-02-28T04:29:20;98616.00;;;0.30
19666;BMP180;9980;51.020;7.772;2023-02-28T04:31:47;98611.00;;;0.30
19666;BMP180;9980;51.020;7.772;2023-02-28T04:34:14;98612.00;;;0.30
19666;BMP180;9980;51.020;7.772;2023-02-28T04:36:41;98610.00;;;0.30
19666;BMP180;9980;51.020;7.772;2023-02-28T04:39:08;98604.00;;;0.30
19666;BMP180;9980;51.020;7.772;2023-02-28T04:41:36;98621.00;;;0.30
19666;BMP180;9980;51.020;7.772;2023-02-28T04:44:03;98609.00;;;0.40
19666;BMP180;9980;51.020;7.772;2023-02-28T04:46:30;98602.00;;;0.30
19666;BMP180;9980;51.020;7.772;2023-02-28T04:48:57;98620.00;;;0.40
19666;BMP180;9980;51.020;7.772;2023-02-28T04:51:25;98614.00;;;0.30
19666;BMP180;9980;51.020;7.772;2023-02-28T04:53:53;98620.00;;;0.30
19666;BMP180;9980;51.020;7.772;2023-02-28T04:56:20;98623.00;;;0.30
19666;BMP180;9980;51.020;7.772;2023-02-28T04:58:47;98617.00;;;0.30
19666;BMP180;9980;51.020;7.772;2023-02-28T05:01:24;98616.00;;;0.30
19666;BMP180;9980;51.020;7.772;2023-02-28T05:03:55;98607.00;;;0.30
19666;BMP180;9980;51.020;7.772;2023-02-28T05:06:26;98618.00;;;0.20
19666;BMP180;9980;51.020;7.772;2023-02-28T05:08:53;98617.00;;;0.20
19666;BMP180;9980;51.020;7.772;2023-02-28T05:11:28;98626.00;;;0.20
19666;BMP180;9980;51.020;7.772;2023-02-28T05:13:56;98626.00;;;0.20
19666;BMP180;9980;51.020;7.772;2023-02-28T05:16:23;98628.00;;;0.20
19666;BMP180;9980;51.020;7.772;2023-02-28T05:18:50;98621.00;;;0.10
19666;BMP180;9980;51.020;7.772;2023-02-28T05:21:27;98627.00;;;0.10
19666;BMP180;9980;51.020;7.772;2023-02-28T05:23:58;98623.00;;;0.10
19666;BMP180;9980;51.020;7.772;2023-02-28T05:26:26;98624.00;;;0.10
19666;BMP180;9980;51.020;7.772;2023-02-28T05:28:54;98629.00;;;0.10
19666;BMP180;9980;51.020;7.772;2023-02-28T05:31:22;98624.00;;;0.10
19666;BMP180;9980;51.020;7.772;2023-02-28T05:33:50;98619.00;;;0.00
19666;BMP180;9980;51.020;7.772;2023-02-28T05:36:17;98614.00;;;0.00
19666;BMP180;9980;51.020;7.772;2023-02-28T05:38:49;98615.00;;;0.00
19666;BMP180;9980;51.020;7.772;2023-02-28T05:41:18;98631.00;;;0.00
19666;BMP180;9980;51.020;7.772;2023-02-28T05:43:47;98617.00;;;0.00
19666;BMP180;9980;51.020;7.772;2023-02-28T05:46:15;98625.00;;;0.00
19666;BMP180;9980;51.020;7.772;2023-02-28T05:48:46;98632.00;;;0.00
19666;BMP180;9980;51.020;7.772;2023-02-28T05:51:14;98624.00;;;0.00
19666;BMP180;9980;51.020;7.772;2023-02-28T05:53:41;98632.00;;;0.00
19666;BMP180;9980;51.020;7.772;2023-02-28T05:56:08;98629.00;;;0.00
19666;BMP180;9980;51.020;7.772;2023-02-28T05:58:35;98635.00;;;0.00
19666;BMP180;9980;51.020;7.772;2023-02-28T06:03:59;98626.00;;;0.00
19666;BMP180;9980;51.020;7.772;2023-02-28T06:06:27;98632.00;;;0.00
19666;BMP180;9980;51.020;7.772;2023-02-28T06:08:55;98632.00;;;0.00
19666;BMP180;9980;51.020;7.772;2023-02-28T06:11:22;98651.00;;;0.00
19666;BMP180;9980;51.020;7.772;2023-02-28T06:13:56;98623.00;;;0.10
19666;BMP180;9980;51.020;7.772;2023-02-28T06:16:24;98652.00;;;0.10
19666;BMP180;9980;51.020;7.772;2023-02-28T06:18:51;98643.00;;;0.10
19666;BMP180;9980;51.020;7.772;2023-02-28T06:21:19;98654.00;;;0.10
19666;BMP180;9980;51.020;7.772;2023-02-28T06:23:46;98648.00;;;0.10
19666;BMP180;9980;51.020;7.772;2023-02-28T06:26:13;98652.00;;;0.10
19666;BMP180;9980;51.020;7.772;2023-02-28T06:28:40;98643.00;;;0.20
19666;BMP180;9980;51.020;7.772;2023-02-28T06:31:13;98663.00;;;0.20
19666;BMP180;9980;51.020;7.772;2023-02-28T06:33:41;98656.00;;;0.20
19666;BMP180;9980;51.020;7.772;2023-02-28T06:36:11;98656.00;;;0.30
19666;BMP180;9980;51.020;7.772;2023-02-28T06:38:40;98662.00;;;0.30
19666;BMP180;9980;51.020;7.772;2023-02-28T06:41:08;98660.00;;;0.30
19666;BMP180;9980;51.020;7.772;2023-02-28T06:43:40;98666.00;;;0.30
19666;BMP180;9980;51.020;7.772;2023-02-28T06:46:12;98661.00;;;0.30
19666;BMP180;9980;51.020;7.772;2023-02-28T06:48:43;98664.00;;;0.40
19666;BMP180;9980;51.020;7.772;2023-02-28T06:51:13;98668.00;;;0.40
19666;BMP180;9980;51.020;7.772;2023-02-28T06:53:41;98687.00;;;0.40
19666;BMP180;9980;51.020;7.772;2023-02-28T06:56:12;98666.00;;;0.50
19666;BMP180;9980;51.020;7.772;2023-02-28T06:58:40;98677.00;;;0.50
19666;BMP180;9980;51.020;7.772;2023-02-28T07:01:08;98677.00;;;0.50
19666;BMP180;9980;51.020;7.772;2023-02-28T07:03:36;98695.00;;;0.50
19666;BMP180;9980;51.020;7.772;2023-02-28T07:06:04;98685.00;;;0.60
19666;BMP180;9980;51.020;7.772;2023-02-28T07:08:31;98677.00;;;0.60
19666;BMP180;9980;51.020;7.772;2023-02-28T07:10:58;98689.00;;;0.70
19666;BMP180;9980;51.020;7.772;2023-02-28T07:13:25;98686.00;;;0.70
19666;BMP180;9980;51.020;7.772;2023-02-28T07:16:04;98683.00;;;0.80
19666;BMP180;9980;51.020;7.772;2023-02-28T07:18:32;98680.00;;;0.80
19666;BMP180;9980;51.020;7.772;2023-02-28T07:21:03;98693.00;;;0.90
19666;BMP180;9980;51.020;7.772;2023-02-28T07:23:30;98693.00;;;0.90
19666;BMP180;9980;51.020;7.772;2023-02-28T07:25:57;98677.00;;;0.90
19666;BMP180;9980;51.020;7.772;2023-02-28T07:28:25;98690.00;;;1.00
19666;BMP180;9980;51.020;7.772;2023-02-28T07:30:52;98667.00;;;1.10
19666;BMP180;9980;51.020;7.772;2023-02-28T07:33:19;98697.00;;;1.10
19666;BMP180;9980;51.020;7.772;2023-02-28T07:35:46;98693.00;;;1.20
19666;BMP180;9980;51.020;7.772;2023-02-28T07:38:13;98693.00;;;1.20
19666;BMP180;9980;51.020;7.772;2023-02-28T07:40:40;98697.00;;;1.30
19666;BMP180;9980;51.020;7.772;2023-02-28T07:43:07;98704.00;;;1.40
19666;BMP180;9980;51.020;7.772;2023-02-28T07:45:34;98688.00;;;1.40
19666;BMP180;9980;51.020;7.772;2023-02-28T07:48:01;98700.00;;;1.50
19666;BMP180;9980;51.020;7.772;2023-02-28T07:50:29;98690.00;;;1.60
19666;BMP180;9980;51.020;7.772;2023-02-28T07:52:59;98686.00;;;1.70
19666;BMP180;9980;51.020;7.772;2023-02-28T07:55:26;98689.00;;;1.70
19666;BMP180;9980;51.020;7.772;2023-02-28T07:57:56;98690.00;;;1.70
19666;BMP180;9980;51.020;7.772;2023-02-28T08:00:23;98676.00;;;1.80
19666;BMP180;9980;51.020;7.772;2023-02-28T08:02:50;98687.00;;;1.90
19666;BMP180;9980;51.020;7.772;2023-02-28T08:05:17;98685.00;;;2.00
19666;BMP180;9980;51.020;7.772;2023-02-28T08:07:49;98681.00;;;2.10
19666;BMP180;9980;51.020;7.772;2023-02-28T08:10:16;98675.00;;;2.20
19666;BMP180;9980;51.020;7.772;2023-02-28T08:12:43;98681.00;;;2.30
19666;BMP180;9980;51.020;7.772;2023-02-28T08:15:10;98674.00;;;2.30
19666;BMP180;9980;51.020;7.772;2023-02-28T08:17:37;98681.00;;;2.40
19666;BMP180;9980;51.020;7.772;2023-02-28T08:20:05;98698.00;;;2.50
19666;BMP180;9980;51.020;7.772;2023-02-28T08:22:33;98669.00;;;2.60
19666;BMP180;9980;51.020;7.772;2023-02-28T08:24:59;98664.00;;;2.70
19666;BMP180;9980;51.020;7.772;2023-02-28T08:27:26;98690.00;;;2.80
19666;BMP180;9980;51.020;7.772;2023-02-28T08:29:53;98669.00;;;2.90
19666;BMP180;9980;51.020;7.772;2023-02-28T08:32:20;98678.00;;;3.00
19666;BMP180;9980;51.020;7.772;2023-02-28T08:34:56;98680.00;;;3.10
19666;BMP180;9980;51.020;7.772;2023-02-28T08:37:23;98680.00;;;3.10
19666;BMP180;9980;51.020;7.772;2023-02-28T08:39:50;98679.00;;;3.20
19666;BMP180;9980;51.020;7.772;2023-02-28T08:42:22;98693.00;;;3.30
19666;BMP180;9980;51.020;7.772;2023-02-28T08:44:49;98694.00;;;3.40
19666;BMP180;9980;51.020;7.772;2023-02-28T08:47:19;98683.00;;;3.40
19666;BMP180;9980;51.020;7.772;2023-02-28T08:49:46;98696.00;;;3.50
19666;BMP180;9980;51.020;7.772;2023-02-28T08:52:13;98699.00;;;3.50
19666;BMP180;9980;51.020;7.772;2023-02-28T08:54:40;98679.00;;;3.50
19666;BMP180;9980;51.020;7.772;2023-02-28T08:57:07;98678.00;;;3.60
19666;BMP180;9980;51.020;7.772;2023-02-28T08:59:35;98687.00;;;3.60
19666;BMP180;9980;51.020;7.772;2023-02-28T09:02:02;98689.00;;;3.60
19666;BMP180;9980;51.020;7.772;2023-02-28T09:04:29;98692.00;;;3.70
19666;BMP180;9980;51.020;7.772;2023-02-28T09:06:58;98677.00;;;3.70
19666;BMP180;9980;51.020;7.772;2023-02-28T09:09:24;98688.00;;;3.70
19666;BMP180;9980;51.020;7.772;2023-02-28T09:11:51;98675.00;;;3.80
19666;BMP180;9980;51.020;7.772;2023-02-28T09:14:19;98687.00;;;3.90
19666;BMP180;9980;51.020;7.772;2023-02-28T09:16:46;98678.00;;;3.90
19666;BMP180;9980;51.020;7.772;2023-02-28T09:19:14;98684.00;;;4.00
19666;BMP180;9980;51.020;7.772;2023-02-28T09:21:41;98685.00;;;4.10
19666;BMP180;9980;51.020;7.772;2023-02-28T09:24:08;98676.00;;;4.20
19666;BMP180;9980;51.020;7.772;2023-02-28T09:26:37;98678.00;;;4.30
19666;BMP180;9980;51.020;7.772;2023-02-28T09:29:13;98676.00;;;4.50
19666;BMP180;9980;51.020;7.772;2023-02-28T09:31:41;98665.00;;;4.60
19666;BMP180;9980;51.020;7.772;2023-02-28T09:34:09;98668.00;;;4.70
19666;BMP180;9980;51.020;7.772;2023-02-28T09:36:36;98673.00;;;4.80
19666;BMP180;9980;51.020;7.772;2023-02-28T09:39:15;98683.00;;;4.90
19666;BMP180;9980;51.020;7.772;2023-02-28T09:41:45;98684.00;;;5.00
19666;BMP180;9980;51.020;7.772;2023-02-28T09:44:35;98689.00;;;5.10
19666;BMP180;9980;51.020;7.772;2023-02-28T09:47:42;98677.00;;;5.20
19666;BMP180;9980;51.020;7.772;2023-02-28T09:50:52;98689.00;;;5.30
19666;BMP180;9980;51.020;7.772;2023-02-28T09:53:30;98672.00;;;5.40
19666;BMP180;9980;51.020;7.772;2023-02-28T09:56:12;98676.00;;;5.50
19666;BMP180;9980;51.020;7.772;2023-02-28T10:01:39;98682.00;;;5.70
19666;BMP180;9980;51.020;7.772;2023-02-28T10:04:40;98684.00;;;5.80
19666;BMP180;9980;51.020;7.772;2023-02-28T10:10:40;98679.00;;;6.20
19666;BMP180;9980;51.020;7.772;2023-02-28T10:13:39;98689.00;;;6.30
19666;BMP180;9980;51.020;7.772;2023-02-28T10:16:14;98671.00;;;6.40
19666;BMP180;9980;51.020;7.772;2023-02-28T10:19:02;98667.00;;;6.40
19666;BMP180;9980;51.020;7.772;2023-02-28T10:24:41;98683.00;;;6.60
19666;BMP180;9980;51.020;7.772;2023-02-28T10:27:20;98670.00;;;6.60
19666;BMP180;9980;51.020;7.772;2023-02-28T10:29:54;98663.00;;;6.60
19666;BMP180;9980;51.020;7.772;2023-02-28T10:32:25;98678.00;;;6.70
19666;BMP180;9980;51.020;7.772;2023-02-28T10:37:41;98669.00;;;6.80
19666;BMP180;9980;51.020;7.772;2023-02-28T10:40:35;98662.00;;;6.80
19666;BMP180;9980;51.020;7.772;2023-02-28T10:43:25;98644.00;;;6.90
19666;BMP180;9980;51.020;7.772;2023-02-28T10:46:19;98662.00;;;6.90
19666;BMP180;9980;51.020;7.772;2023-02-28T10:49:10;98658.00;;;7.00
19666;BMP180;9980;51.020;7.772;2023-02-28T10:51:40;98655.00;;;7.00
19666;BMP180;9980;51.020;7.772;2023-02-28T10:54:31;98651.00;;;7.10
19666;BMP180;9980;51.020;7.772;2023-02-28T10:57:22;98651.00;;;7.10
19666;BMP180;9980;51.020;7.772;2023-02-28T10:59:52;98657.00;;;7.20
19666;BMP180;9980;51.020;7.772;2023-02-28T11:02:32;98651.00;;;7.20
19666;BMP180;9980;51.020;7.772;2023-02-28T11:05:31;98652.00;;;7.30
19666;BMP180;9980;51.020;7.772;2023-02-28T11:08:18;98653.00;;;7.30
19666;BMP180;9980;51.020;7.772;2023-02-28T11:10:56;98645.00;;;7.40
19666;BMP180;9980;51.020;7.772;2023-02-28T11:13:35;98640.00;;;7.40
19666;BMP180;9980;51.020;7.772;2023-02-28T11:16:06;98651.00;;;7.50
19666;BMP180;9980;51.020;7.772;2023-02-28T11:18:54;98649.00;;;7.50
19666;BMP180;9980;51.020;7.772;2023-02-28T11:21:27;98645.00;;;7.50
19666;BMP180;9980;51.020;7.772;2023-02-28T11:24:27;98650.00;;;7.50
19666;BMP180;9980;51.020;7.772;2023-02-28T11:26:55;98660.00;;;7.60
19666;BMP180;9980;51.020;7.772;2023-02-28T11:29:31;98649.00;;;7.60
19666;BMP180;9980;51.020;7.772;2023-02-28T11:32:21;98637.00;;;7.50
19666;BMP180;9980;51.020;7.772;2023-02-28T11:35:17;98662.00;;;7.50
19666;BMP180;9980;51.020;7.772;2023-02-28T11:37:46;98656.00;;;7.50
19666;BMP180;9980;51.020;7.772;2023-02-28T11:40:20;98673.00;;;7.40
19666;BMP180;9980;51.020;7.772;2023-02-28T11:46:35;98656.00;;;7.30
19666;BMP180;9980;51.020;7.772;2023-02-28T11:51:56;98653.00;;;7.30
19666;BMP180;9980;51.020;7.772;2023-02-28T12:04:03;98636.00;;;7.50
19666;BMP180;9980;51.020;7.772;2023-02-28T12:15:54;98632.00;;;7.70
19666;BMP180;9980;51.020;7.772;2023-02-28T12:27:33;98628.00;;;8.00
19666;BMP180;9980;51.020;7.772;2023-02-28T12:30:27;98639.00;;;8.10
19666;BMP180;9980;51.020;7.772;2023-02-28T12:33:14;98626.00;;;8.20
19666;BMP180;9980;51.020;7.772;2023-02-28T12:35:54;98630.00;;;8.20
19666;BMP180;9980;51.020;7.772;2023-02-28T12:38:26;98620.00;;;8.40
19666;BMP180;9980;51.020;7.772;2023-02-28T12:41:00;98615.00;;;8.40
19666;BMP180;9980;51.020;7.772;2023-02-28T12:43:55;98604.00;;;8.50
19666;BMP180;9980;51.020;7.772;2023-02-28T12:46:33;98618.00;;;8.50
19666;BMP180;9980;51.020;7.772;2023-02-28T12:49:09;98624.00;;;8.60
19666;BMP180;9980;51.020;7.772;2023-02-28T12:51:38;98622.00;;;8.60
19666;BMP180;9980;51.020;7.772;2023-02-28T12:54:16;98613.00;;;8.60
19666;BMP180;9980;51.020;7.772;2023-02-28T12:57:13;98601.00;;;8.60
19666;BMP180;9980;51.020;7.772;2023-02-28T13:00:03;98593.00;;;8.70
19666;BMP180;9980;51.020;7.772;2023-02-28T13:06:10;98594.00;;;8.70
19666;BMP180;9980;51.020;7.772;2023-02-28T13:09:04;98591.00;;;8.70
19666;BMP180;9980;51.020;7.772;2023-02-28T13:19:32;98579.00;;;8.90
19666;BMP180;9980;51.020;7.772;2023-02-28T13:22:01;98584.00;;;8.90
19666;BMP180;9980;51.020;7.772;2023-02-28T13:24:49;98568.00;;;8.90
19666;BMP180;9980;51.020;7.772;2023-02-28T13:29:52;98583.00;;;9.00
19666;BMP180;9980;51.020;7.772;2023-02-28T13:32:30;98570.00;;;9.00
19666;BMP180;9980;51.020;7.772;2023-02-28T13:40:06;98572.00;;;9.20
19666;BMP180;9980;51.020;7.772;2023-02-28T13:42:50;98559.00;;;9.20
19666;BMP180;9980;51.020;7.772;2023-02-28T13:45:26;98555.00;;;9.30
19666;BMP180;9980;51.020;7.772;2023-02-28T13:48:19;98568.00;;;9.30
19666;BMP180;9980;51.020;7.772;2023-02-28T13:50:51;98564.00;;;9.30
19666;BMP180;9980;51.020;7.772;2023-02-28T13:53:53;98553.00;;;9.30
19666;BMP180;9980;51.020;7.772;2023-02-28T13:57:08;98560.00;;;9.30
19666;BMP180;9980;51.020;7.772;2023-02-28T14:02:37;98558.00;;;9.40
19666;BMP180;9980;51.020;7.772;2023-02-28T14:05:18;98543.00;;;9.40
19666;BMP180;9980;51.020;7.772;2023-02-28T14:07:58;98548.00;;;9.40
19666;BMP180;9980;51.020;7.772;2023-02-28T14:10:42;98545.00;;;9.40
19666;BMP180;9980;51.020;7.772;2023-02-28T14:13:37;98548.00;;;9.40
19666;BMP180;9980;51.020;7.772;2023-02-28T14:16:08;98517.00;;;9.40
19666;BMP180;9980;51.020;7.772;2023-02-28T14:18:37;98542.00;;;9.50
19666;BMP180;9980;51.020;7.772;2023-02-28T14:21:28;98544.00;;;9.50
19666;BMP180;9980;51.020;7.772;2023-02-28T14:24:29;98552.00;;;9.40
19666;BMP180;9980;51.020;7.772;2023-02-28T14:27:31;98537.00;;;9.40
19666;BMP180;9980;51.020;7.772;2023-02-28T14:33:40;98521.00;;;9.40
19666;BMP180;9980;51.020;7.772;2023-02-28T14:38:51;98525.00;;;9.40
19666;BMP180;9980;51.020;7.772;2023-02-28T14:41:33;98521.00;;;9.40
19666;BMP180;9980;51.020;7.772;2023-02-28T14:44:18;98535.00;;;9.40
19666;BMP180;9980;51.020;7.772;2023-02-28T14:46:50;98545.00;;;9.40
19666;BMP180;9980;51.020;7.772;2023-02-28T14:52:02;98527.00;;;9.40
19666;BMP180;9980;51.020;7.772;2023-02-28T14:54:30;98544.00;;;9.50
19666;BMP180;9980;51.020;7.772;2023-02-28T14:56:57;98530.00;;;9.50
19666;BMP180;9980;51.020;7.772;2023-02-28T14:59:30;98526.00;;;9.40
19666;BMP180;9980;51.020;7.772;2023-02-28T15:02:21;98525.00;;;9.40
19666;BMP180;9980;51.020;7.772;2023-02-28T15:04:58;98534.00;;;9.40
19666;BMP180;9980;51.020;7.772;2023-02-28T15:07:26;98534.00;;;9.40
19666;BMP180;9980;51.020;7.772;2023-02-28T15:10:11;98534.00;;;9.40
19666;BMP180;9980;51.020;7.772;2023-02-28T15:12:51;98542.00;;;9.30
19666;BMP180;9980;51.020;7.772;2023-02-28T15:15:21;98543.00;;;9.30
19666;BMP180;9980;51.020;7.772;2023-02-28T15:18:05;98509.00;;;9.30
19666;BMP180;9980;51.020;7.772;2023-02-28T15:20:33;98528.00;;;9.20
19666;BMP180;9980;51.020;7.772;2023-02-28T15:23:02;98515.00;;;9.20
19666;BMP180;9980;51.020;7.772;2023-02-28T15:25:29;98517.00;;;9.20
19666;BMP180;9980;51.020;7.772;2023-02-28T15:27:56;98522.00;;;9.20
19666;BMP180;9980;51.020;7.772;2023-02-28T15:30:30;98517.00;;;9.10
19666;BMP180;9980;51.020;7.772;2023-02-28T15:33:26;98527.00;;;9.00
19666;BMP180;9980;51.020;7.772;2023-02-28T15:36:16;98531.00;;;9.00
19666;BMP180;9980;51.020;7.772;2023-02-28T15:38:53;98525.00;;;9.00
19666;BMP180;9980;51.020;7.772;2023-02-28T15:41:36;98528.00;;;8.90
19666;BMP180;9980;51.020;7.772;2023-02-28T15:44:29;98534.00;;;8.90
19666;BMP180;9980;51.020;7.772;2023-02-28T15:47:16;98511.00;;;8.80
19666;BMP180;9980;51.020;7.772;2023-02-28T15:49:52;98527.00;;;8.80
19666;BMP180;9980;51.020;7.772;2023-02-28T15:52:34;98546.00;;;8.80
19666;BMP180;9980;51.020;7.772;2023-02-28T15:55:19;98526.00;;;8.70
19666;BMP180;9980;51.020;7.772;2023-02-28T15:57:55;98524.00;;;8.70
19666;BMP180;9980;51.020;7.772;2023-02-28T16:00:27;98537.00;;;8.70
19666;BMP180;9980;51.020;7.772;2023-02-28T16:02:54;98527.00;;;8.70
19666;BMP180;9980;51.020;7.772;2023-02-28T16:05:29;98540.00;;;8.60
19666;BMP180;9980;51.020;7.772;2023-02-28T16:08:12;98544.00;;;8.60
19666;BMP180;9980;51.020;7.772;2023-02-28T16:10:40;98541.00;;;8.60
19666;BMP180;9980;51.020;7.772;2023-02-28T16:13:12;98537.00;;;8.60
19666;BMP180;9980;51.020;7.772;2023-02-28T16:15:43;98525.00;;;8.50
19666;BMP180;9980;51.020;7.772;2023-02-28T16:18:12;98528.00;;;8.50
19666;BMP180;9980;51.020;7.772;2023-02-28T16:20:39;98528.00;;;8.50
19666;BMP180;9980;51.020;7.772;2023-02-28T16:23:06;98539.00;;;8.50
19666;BMP180;9980;51.020;7.772;2023-02-28T16:25:43;98534.00;;;8.40
19666;BMP180;9980;51.020;7.772;2023-02-28T16:28:29;98541.00;;;8.40
19666;BMP180;9980;51.020;7.772;2023-02-28T16:31:00;98537.00;;;8.40
19666;BMP180;9980;51.020;7.772;2023-02-28T16:33:31;98527.00;;;8.30
19666;BMP180;9980;51.020;7.772;2023-02-28T16:35:58;98542.00;;;8.30
19666;BMP180;9980;51.020;7.772;2023-02-28T16:38:25;98551.00;;;8.30
19666;BMP180;9980;51.020;7.772;2023-02-28T16:40:56;98543.00;;;8.20
19666;BMP180;9980;51.020;7.772;2023-02-28T16:43:26;98570.00;;;8.20
19666;BMP180;9980;51.020;7.772;2023-02-28T16:45:56;98543.00;;;8.10
19666;BMP180;9980;51.020;7.772;2023-02-28T16:48:27;98578.00;;;8.10
19666;BMP180;9980;51.020;7.772;2023-02-28T16:50:54;98553.00;;;8.00
19666;BMP180;9980;51.020;7.772;2023-02-28T16:53:22;98568.00;;;8.00
19666;BMP180;9980;51.020;7.772;2023-02-28T16:55:49;98566.00;;;7.90
19666;BMP180;9980;51.020;7.772;2023-02-28T16:58:17;98578.00;;;7.80
19666;BMP180;9980;51.020;7.772;2023-02-28T17:00:46;98587.00;;;7.80
19666;BMP180;9980;51.020;7.772;2023-02-28T17:03:33;98578.00;;;7.70
19666;BMP180;9980;51.020;7.772;2023-02-28T17:06:00;98595.00;;;7.70